createdAt,value
2023-05-19T00:02:09.305Z,13.33
2023-05-19T00:07:03.007Z,13.30
2023-05-19T00:11:54.870Z,13.28
2023-05-19T00:16:47.547Z,13.30
2023-05-19T00:21:39.278Z,13.30
2023-05-19T00:26:31.135Z,13.24
2023-05-19T00:31:22.861Z,13.19
2023-05-19T00:36:14.658Z,13.11
2023-05-19T00:41:07.033Z,13.00
2023-05-19T00:45:58.661Z,12.92
2023-05-19T00:50:51.146Z,12.88
2023-05-19T00:55:42.959Z,12.79
2023-05-19T01:00:35.221Z,12.79
2023-05-19T01:05:27.068Z,12.80
2023-05-19T01:10:18.898Z,12.83
2023-05-19T01:15:11.158Z,12.78
2023-05-19T01:20:38.607Z,12.78
2023-05-19T01:25:58.113Z,12.80
2023-05-19T01:30:54.394Z,12.70
2023-05-19T01:35:47.572Z,12.59
2023-05-19T01:40:41.735Z,12.53
2023-05-19T01:45:34.488Z,12.51
2023-05-19T01:50:26.348Z,12.47
2023-05-19T01:55:18.265Z,12.36
2023-05-19T02:00:25.812Z,12.36
2023-05-19T02:05:31.416Z,12.29
2023-05-19T02:10:27.626Z,12.23
2023-05-19T02:15:26.802Z,12.21
2023-05-19T02:20:18.911Z,12.17
2023-05-19T02:25:11.411Z,12.18
2023-05-19T02:30:04.243Z,12.10
2023-05-19T02:34:56.614Z,12.06
2023-05-19T02:39:48.375Z,11.99
2023-05-19T02:44:40.207Z,11.93
2023-05-19T02:49:35.875Z,11.90
2023-05-19T02:54:27.540Z,11.85
2023-05-19T02:59:19.479Z,11.85
2023-05-19T03:04:11.262Z,11.81
2023-05-19T03:09:03.106Z,11.76
2023-05-19T03:13:54.693Z,11.70
2023-05-19T03:18:46.418Z,11.71
2023-05-19T03:23:38.065Z,11.76
2023-05-19T03:28:29.764Z,11.77
2023-05-19T03:33:21.495Z,11.71
2023-05-19T03:38:13.265Z,11.70
2023-05-19T03:43:04.939Z,11.72
2023-05-19T03:47:56.892Z,11.76
2023-05-19T03:52:48.880Z,11.77
2023-05-19T03:57:41.600Z,11.79
2023-05-19T04:02:33.402Z,11.78
2023-05-19T04:07:25.090Z,11.73
2023-05-19T04:12:16.897Z,11.74
2023-05-19T04:17:08.713Z,11.72
2023-05-19T04:22:00.285Z,11.67
2023-05-19T04:26:52.206Z,11.61
2023-05-19T04:31:45.139Z,11.55
2023-05-19T04:36:37.861Z,11.51
2023-05-19T04:41:29.768Z,11.49
2023-05-19T04:46:24.524Z,11.46
2023-05-19T04:51:17.758Z,11.45
2023-05-19T04:56:15.836Z,11.45
2023-05-19T05:01:09.650Z,11.49
2023-05-19T05:06:01.490Z,11.54
2023-05-19T05:10:53.829Z,11.58
2023-05-19T05:15:45.679Z,11.67
2023-05-19T05:20:37.765Z,11.79
2023-05-19T05:25:29.803Z,11.90
2023-05-19T05:30:21.453Z,11.98
2023-05-19T05:35:13.310Z,12.05
2023-05-19T05:40:07.129Z,12.07
2023-05-19T05:44:58.805Z,12.14
2023-05-19T05:49:53.371Z,12.16
2023-05-19T05:54:46.355Z,12.20
2023-05-19T05:59:38.695Z,12.24
2023-05-19T06:04:31.162Z,12.31
2023-05-19T06:09:22.772Z,12.39
2023-05-19T06:14:14.424Z,12.49
2023-05-19T06:19:06.265Z,12.57
2023-05-19T06:23:58.090Z,12.65
2023-05-19T06:28:49.711Z,12.76
2023-05-19T06:33:41.363Z,12.90
2023-05-19T06:38:33.001Z,13.04
2023-05-19T06:43:25.841Z,13.30
2023-05-19T06:48:17.566Z,13.47
2023-05-19T06:53:09.282Z,13.57
2023-05-19T06:58:01.855Z,13.61
2023-05-19T07:02:53.763Z,13.56
2023-05-19T07:07:45.584Z,13.55
2023-05-19T07:12:37.200Z,13.57
2023-05-19T07:17:28.851Z,13.61
2023-05-19T07:22:21.179Z,13.73
2023-05-19T07:27:12.822Z,13.86
2023-05-19T07:32:04.875Z,14.24
2023-05-19T07:36:56.734Z,14.33
2023-05-19T07:41:52.827Z,14.45
2023-05-19T07:46:44.524Z,14.44
2023-05-19T07:51:36.292Z,14.41
2023-05-19T07:56:27.927Z,14.38
2023-05-19T08:01:19.589Z,14.32
2023-05-19T08:06:11.454Z,14.23
2023-05-19T08:11:04.594Z,14.20
2023-05-19T08:15:59.883Z,14.14
2023-05-19T08:20:51.839Z,14.07
2023-05-19T08:25:44.108Z,14.08
2023-05-19T08:30:35.868Z,14.12
2023-05-19T08:35:27.534Z,14.09
2023-05-19T08:40:20.184Z,14.09
2023-05-19T08:45:12.271Z,14.14
2023-05-19T08:50:07.843Z,14.13
2023-05-19T08:55:06.269Z,14.08
2023-05-19T08:59:58.813Z,14.00
2023-05-19T09:04:50.940Z,13.93
2023-05-19T09:09:44.100Z,13.93
2023-05-19T09:14:37.644Z,13.91
2023-05-19T09:19:30.174Z,13.94
2023-05-19T09:24:26.185Z,14.07
2023-05-19T09:29:18.449Z,14.15
2023-05-19T09:34:13.570Z,14.24
2023-05-19T09:39:13.330Z,14.27
2023-05-19T09:44:05.589Z,14.26
2023-05-19T09:48:58.699Z,14.23
2023-05-19T09:53:50.651Z,14.23
2023-05-19T09:58:42.803Z,14.30
2023-05-19T10:03:35.309Z,14.37
2023-05-19T10:08:29.920Z,14.38
2023-05-19T10:13:22.684Z,14.38
2023-05-19T10:18:17.772Z,14.33
2023-05-19T10:23:09.505Z,14.44
2023-05-19T10:28:15.199Z,14.58
2023-05-19T10:33:10.377Z,14.64
2023-05-19T10:38:29.862Z,14.64
2023-05-19T10:43:37.425Z,14.61
2023-05-19T10:48:34.684Z,14.67
2023-05-19T10:53:35.044Z,14.84
2023-05-19T10:58:44.690Z,15.01
2023-05-19T11:03:53.912Z,15.16
2023-05-19T11:08:45.657Z,15.20
2023-05-19T11:13:37.675Z,15.13
2023-05-19T11:18:31.750Z,15.05
2023-05-19T11:23:25.966Z,15.15
2023-05-19T11:28:19.977Z,15.21
2023-05-19T11:33:13.550Z,15.47
2023-05-19T11:38:06.666Z,15.65
2023-05-19T11:42:58.684Z,15.88
2023-05-19T11:48:01.939Z,16.09
2023-05-19T11:52:55.272Z,16.16
2023-05-19T11:58:04.056Z,16.32
2023-05-19T12:02:57.919Z,16.50
2023-05-19T12:07:51.492Z,16.50
2023-05-19T12:12:45.306Z,16.53
2023-05-19T12:17:37.056Z,16.55
2023-05-19T12:22:28.916Z,16.38
2023-05-19T12:27:24.417Z,16.37
2023-05-19T12:32:16.263Z,16.31
2023-05-19T12:37:08.338Z,16.28
2023-05-19T12:42:10.162Z,16.43
2023-05-19T12:47:05.912Z,16.56
2023-05-19T12:51:57.847Z,16.65
2023-05-19T12:56:52.719Z,16.67
2023-05-19T13:01:44.661Z,16.82
2023-05-19T13:06:36.360Z,17.05
2023-05-19T13:11:28.026Z,17.22
2023-05-19T13:16:19.649Z,17.42
2023-05-19T13:21:11.288Z,17.88
2023-05-19T13:26:05.048Z,18.14
2023-05-19T13:30:57.066Z,18.44
2023-05-19T13:35:49.374Z,18.75
2023-05-19T13:40:41.233Z,18.52
2023-05-19T13:45:33.016Z,18.20
2023-05-19T13:50:24.742Z,18.14
2023-05-19T13:55:16.691Z,18.22
2023-05-19T14:00:10.222Z,18.25
2023-05-19T14:05:01.951Z,18.36
2023-05-19T14:09:53.779Z,18.49
2023-05-19T14:14:45.496Z,18.57
2023-05-19T14:19:37.245Z,18.73
2023-05-19T14:24:28.863Z,19.05
2023-05-19T14:29:20.606Z,19.28
2023-05-19T14:34:12.267Z,19.45
2023-05-19T14:39:03.918Z,19.25
2023-05-19T14:43:56.224Z,19.04
2023-05-19T14:48:47.846Z,18.88
2023-05-19T14:53:39.441Z,18.78
2023-05-19T14:58:31.099Z,18.61
2023-05-19T15:03:23.299Z,18.51
2023-05-19T15:08:15.027Z,18.40
2023-05-19T15:13:06.656Z,18.36
2023-05-19T15:17:58.367Z,18.40
2023-05-19T15:22:50.105Z,18.42
2023-05-19T15:27:41.812Z,18.43
2023-05-19T15:32:33.917Z,18.40
2023-05-19T15:37:25.754Z,18.41
2023-05-19T15:42:17.472Z,18.40
2023-05-19T15:47:09.142Z,18.47
2023-05-19T15:52:00.869Z,18.48
2023-05-19T15:56:52.551Z,18.50
2023-05-19T16:01:44.402Z,18.44
2023-05-19T16:06:36.141Z,18.27
2023-05-19T16:11:27.964Z,18.00
2023-05-19T16:16:19.668Z,17.86
2023-05-19T16:21:11.319Z,17.79
2023-05-19T16:26:02.901Z,17.70
2023-05-19T16:31:00.859Z,17.61
2023-05-19T16:35:52.636Z,17.58
2023-05-19T16:40:44.767Z,17.51
2023-05-19T16:45:36.908Z,17.49
2023-05-19T16:50:28.553Z,17.42
2023-05-19T16:55:20.704Z,17.30
2023-05-19T17:00:13.330Z,17.26
2023-05-19T17:05:05.215Z,17.17
2023-05-19T17:09:57.042Z,17.04
2023-05-19T17:14:50.410Z,16.95
2023-05-19T17:19:42.850Z,16.86
2023-05-19T17:24:34.485Z,16.68
2023-05-19T17:29:27.928Z,16.62
2023-05-19T17:34:19.566Z,16.63
2023-05-19T17:39:11.415Z,16.58
2023-05-19T17:44:03.904Z,16.53
2023-05-19T17:48:55.774Z,16.43
2023-05-19T17:53:47.774Z,16.31
2023-05-19T17:58:39.686Z,16.23
2023-05-19T18:03:31.831Z,16.07
2023-05-19T18:08:23.886Z,16.00
2023-05-19T18:13:15.698Z,15.90
2023-05-19T18:18:07.875Z,15.86
2023-05-19T18:22:59.541Z,15.85
2023-05-19T18:27:51.357Z,15.81
2023-05-19T18:32:43.056Z,15.73
2023-05-19T18:37:34.998Z,15.60
2023-05-19T18:42:26.672Z,15.53
2023-05-19T18:47:19.776Z,15.44
2023-05-19T18:52:11.596Z,15.35
2023-05-19T18:57:04.968Z,15.37
2023-05-19T19:01:56.682Z,15.37
2023-05-19T19:06:49.010Z,15.32
2023-05-19T19:11:41.914Z,15.29
2023-05-19T19:16:34.152Z,15.15
2023-05-19T19:21:26.016Z,15.08
2023-05-19T19:26:17.729Z,15.01
2023-05-19T19:31:09.447Z,14.90
2023-05-19T19:36:01.504Z,14.77
2023-05-19T19:40:53.159Z,14.73
2023-05-19T19:45:44.891Z,14.64
2023-05-19T19:50:36.660Z,14.63
2023-05-19T19:55:29.935Z,14.59
2023-05-19T20:00:22.045Z,14.56
2023-05-19T20:05:14.821Z,14.58
2023-05-19T20:10:07.217Z,14.56
2023-05-19T20:14:58.885Z,14.51
2023-05-19T20:19:50.657Z,14.47
2023-05-19T20:24:42.337Z,14.42
2023-05-19T20:29:33.934Z,14.43
2023-05-19T20:34:26.027Z,14.38
2023-05-19T20:39:17.937Z,14.33
2023-05-19T20:44:10.431Z,14.31
2023-05-19T20:49:02.099Z,14.31
2023-05-19T20:53:53.728Z,14.31
2023-05-19T20:58:45.549Z,14.27
2023-05-19T21:03:37.257Z,14.23
2023-05-19T21:08:29.907Z,14.18
2023-05-19T21:13:21.606Z,14.11
2023-05-19T21:18:13.352Z,14.07
2023-05-19T21:23:05.437Z,14.00
2023-05-19T21:27:58.304Z,13.91
2023-05-19T21:32:50.044Z,13.87
2023-05-19T21:37:41.744Z,13.81
2023-05-19T21:42:33.646Z,13.79
2023-05-19T21:47:25.364Z,13.77
2023-05-19T21:52:17.097Z,13.68
2023-05-19T21:57:11.133Z,13.63
2023-05-19T22:02:02.826Z,13.66
2023-05-19T22:06:54.494Z,13.67
2023-05-19T22:11:46.332Z,13.65
2023-05-19T22:16:38.100Z,13.63
2023-05-19T22:21:29.859Z,13.60
2023-05-19T22:26:22.324Z,13.55
2023-05-19T22:31:14.086Z,13.53
2023-05-19T22:36:05.871Z,13.49
2023-05-19T22:40:57.535Z,13.43
2023-05-19T22:45:49.365Z,13.36
2023-05-19T22:50:41.473Z,13.30
2023-05-19T22:55:34.698Z,13.23
2023-05-19T23:00:26.651Z,13.13
2023-05-19T23:05:18.274Z,13.05
2023-05-19T23:10:11.569Z,12.96
2023-05-19T23:15:03.757Z,12.85
2023-05-19T23:19:55.751Z,12.74
2023-05-19T23:24:47.593Z,12.65
2023-05-19T23:29:39.248Z,12.61
2023-05-19T23:34:30.872Z,12.58
2023-05-19T23:39:25.149Z,12.58
2023-05-19T23:44:18.650Z,12.51
2023-05-19T23:49:10.246Z,12.47
2023-05-19T23:54:01.840Z,12.42
2023-05-19T23:58:53.457Z,12.36
